createdAt,value
2023-04-29T00:01:14.365Z,16.19
2023-04-29T00:03:42.687Z,16.18
2023-04-29T00:06:12.066Z,16.15
2023-04-29T00:08:40.082Z,16.16
2023-04-29T00:11:07.873Z,16.14
2023-04-29T00:13:36.183Z,16.11
2023-04-29T00:16:04.012Z,16.03
2023-04-29T00:18:33.882Z,16.02
2023-04-29T00:21:02.877Z,16.02
2023-04-29T00:23:30.624Z,15.99
2023-04-29T00:25:58.408Z,15.94
2023-04-29T00:28:26.858Z,15.94
2023-04-29T00:30:55.791Z,15.92
2023-04-29T00:33:23.611Z,15.86
2023-04-29T00:35:53.492Z,15.86
2023-04-29T00:38:21.402Z,15.82
2023-04-29T00:40:49.559Z,15.80
2023-04-29T00:43:17.826Z,15.75
2023-04-29T00:45:46.988Z,15.73
2023-04-29T00:48:15.855Z,15.68
2023-04-29T00:50:44.538Z,15.69
2023-04-29T00:53:14.715Z,15.64
2023-04-29T00:55:45.566Z,15.61
2023-04-29T00:58:13.550Z,15.55
2023-04-29T01:00:44.193Z,15.54
2023-04-29T01:03:12.798Z,15.51
2023-04-29T01:05:40.923Z,15.49
2023-04-29T01:08:27.612Z,15.49
2023-04-29T01:11:02.752Z,15.46
2023-04-29T01:13:33.394Z,15.47
2023-04-29T01:16:04.742Z,15.46
2023-04-29T01:21:26.520Z,15.40
2023-04-29T01:23:57.740Z,15.44
2023-04-29T01:26:26.955Z,15.44
2023-04-29T01:29:03.070Z,15.47
2023-04-29T01:31:37.757Z,15.48
2023-04-29T01:34:11.861Z,15.46
2023-04-29T01:36:54.293Z,15.46
2023-04-29T01:39:35.288Z,15.43
2023-04-29T01:42:16.816Z,15.43
2023-04-29T01:44:46.019Z,15.40
2023-04-29T01:47:16.071Z,15.42
2023-04-29T01:49:47.263Z,15.41
2023-04-29T01:52:15.050Z,15.34
2023-04-29T01:54:44.313Z,15.34
2023-04-29T01:57:12.880Z,15.33
2023-04-29T01:59:40.802Z,15.33
2023-04-29T02:02:08.731Z,15.26
2023-04-29T02:04:37.189Z,15.26
2023-04-29T02:07:05.092Z,15.21
2023-04-29T02:09:32.958Z,15.21
2023-04-29T02:12:05.166Z,15.18
2023-04-29T02:14:35.599Z,15.16
2023-04-29T02:17:05.882Z,15.14
2023-04-29T02:19:33.663Z,15.10
2023-04-29T02:22:01.473Z,15.12
2023-04-29T02:24:29.584Z,15.13
2023-04-29T02:26:57.349Z,15.13
2023-04-29T02:29:30.067Z,15.08
2023-04-29T02:31:57.844Z,15.01
2023-04-29T02:34:25.639Z,15.01
2023-04-29T02:36:53.594Z,15.01
2023-04-29T02:39:21.619Z,14.79
2023-04-29T02:41:49.396Z,14.79
2023-04-29T02:44:17.935Z,14.79
2023-04-29T02:46:47.159Z,14.76
2023-04-29T02:49:14.989Z,14.70
2023-04-29T02:51:43.229Z,14.71
2023-04-29T02:54:11.375Z,14.56
2023-04-29T02:56:39.135Z,14.60
2023-04-29T02:59:07.386Z,14.61
2023-04-29T03:01:35.209Z,14.50
2023-04-29T03:04:04.730Z,14.55
2023-04-29T03:06:32.828Z,14.60
2023-04-29T03:09:00.679Z,14.57
2023-04-29T03:11:28.982Z,14.56
2023-04-29T03:13:57.898Z,14.54
2023-04-29T03:16:25.938Z,14.52
2023-04-29T03:18:53.771Z,14.40
2023-04-29T03:21:23.354Z,14.34
2023-04-29T03:23:51.104Z,14.35
2023-04-29T03:26:18.917Z,14.32
2023-04-29T03:28:47.710Z,14.34
2023-04-29T03:31:16.626Z,14.28
2023-04-29T03:33:44.724Z,14.31
2023-04-29T03:36:13.814Z,14.25
2023-04-29T03:38:43.015Z,14.19
2023-04-29T03:41:10.896Z,14.15
2023-04-29T03:43:39.375Z,14.18
2023-04-29T03:46:07.550Z,14.16
2023-04-29T03:48:35.368Z,14.20
2023-04-29T03:51:03.830Z,14.15
2023-04-29T03:53:32.842Z,14.19
2023-04-29T03:56:02.024Z,14.24
2023-04-29T03:58:30.277Z,14.28
2023-04-29T04:00:58.087Z,14.30
2023-04-29T04:03:27.760Z,14.34
2023-04-29T04:05:56.111Z,14.34
2023-04-29T04:08:24.175Z,14.22
2023-04-29T04:10:52.001Z,14.25
2023-04-29T04:13:21.788Z,14.28
2023-04-29T04:15:51.868Z,14.18
2023-04-29T04:18:19.654Z,14.22
2023-04-29T04:20:48.078Z,14.15
2023-04-29T04:23:15.957Z,14.14
2023-04-29T04:25:47.478Z,14.13
2023-04-29T04:28:16.415Z,14.16
2023-04-29T04:30:47.958Z,14.15
2023-04-29T04:33:16.520Z,14.18
2023-04-29T04:35:44.482Z,14.19
2023-04-29T04:38:12.532Z,14.21
2023-04-29T04:40:42.554Z,14.27
2023-04-29T04:43:10.534Z,14.26
2023-04-29T04:45:38.390Z,14.23
2023-04-29T04:48:08.881Z,14.28
2023-04-29T04:50:36.701Z,14.31
2023-04-29T04:53:04.481Z,14.29
2023-04-29T04:55:34.069Z,14.32
2023-04-29T04:58:01.860Z,14.28
2023-04-29T05:00:29.641Z,14.28
2023-04-29T05:02:58.517Z,14.28
2023-04-29T05:05:27.992Z,14.31
2023-04-29T05:07:55.815Z,14.19
2023-04-29T05:10:27.003Z,14.14
2023-04-29T05:12:54.757Z,14.07
2023-04-29T05:15:22.510Z,14.09
2023-04-29T05:17:51.020Z,14.09
2023-04-29T05:20:20.387Z,14.00
2023-04-29T05:22:49.554Z,14.06
2023-04-29T05:25:18.046Z,13.94
2023-04-29T05:27:45.840Z,13.97
2023-04-29T05:30:14.079Z,13.89
2023-04-29T05:32:42.395Z,13.88
2023-04-29T05:35:10.649Z,13.86
2023-04-29T05:37:38.456Z,13.82
2023-04-29T05:40:09.410Z,13.84
2023-04-29T05:42:37.434Z,13.86
2023-04-29T05:45:06.061Z,13.76
2023-04-29T05:47:35.121Z,13.68
2023-04-29T05:50:03.928Z,13.77
2023-04-29T05:52:31.792Z,13.85
2023-04-29T05:54:59.793Z,13.93
2023-04-29T05:57:28.913Z,13.98
2023-04-29T05:59:57.507Z,14.00
2023-04-29T06:02:25.910Z,14.15
2023-04-29T06:04:54.039Z,14.21
2023-04-29T06:07:22.534Z,14.33
2023-04-29T06:09:50.964Z,14.40
2023-04-29T06:12:18.908Z,14.43
2023-04-29T06:14:48.009Z,14.44
2023-04-29T06:17:16.300Z,14.41
2023-04-29T06:19:44.056Z,14.43
2023-04-29T06:22:13.381Z,14.39
2023-04-29T06:24:41.600Z,14.34
2023-04-29T06:27:09.385Z,14.21
2023-04-29T06:29:37.457Z,14.20
2023-04-29T06:32:07.304Z,14.09
2023-04-29T06:34:36.070Z,14.08
2023-04-29T06:37:04.698Z,14.04
2023-04-29T06:39:32.457Z,14.02
2023-04-29T06:42:00.234Z,13.97
2023-04-29T06:44:27.965Z,13.88
2023-04-29T06:46:56.212Z,13.88
2023-04-29T06:49:25.368Z,13.87
2023-04-29T06:51:54.511Z,13.81
2023-04-29T06:54:22.904Z,13.80
2023-04-29T06:56:50.960Z,13.84
2023-04-29T06:59:18.717Z,13.84
2023-04-29T07:01:49.004Z,13.79
2023-04-29T07:04:17.491Z,13.82
2023-04-29T07:06:47.167Z,13.84
2023-04-29T07:09:15.316Z,13.85
2023-04-29T07:11:43.464Z,13.81
2023-04-29T07:14:11.759Z,13.90
2023-04-29T07:16:39.493Z,13.94
2023-04-29T07:19:07.618Z,13.95
2023-04-29T07:21:36.377Z,13.96
2023-04-29T07:24:06.551Z,13.97
2023-04-29T07:26:34.265Z,13.97
2023-04-29T07:29:02.184Z,13.99
2023-04-29T07:31:30.269Z,13.96
2023-04-29T07:33:59.532Z,13.95
2023-04-29T07:36:28.498Z,13.89
2023-04-29T07:38:56.505Z,13.95
2023-04-29T07:41:25.589Z,13.92
2023-04-29T07:43:53.487Z,13.96
2023-04-29T07:46:21.212Z,13.95
2023-04-29T07:48:48.967Z,13.93
2023-04-29T07:51:17.001Z,13.98
2023-04-29T07:53:44.765Z,14.00
2023-04-29T07:56:12.783Z,13.97
2023-04-29T07:58:42.239Z,14.03
2023-04-29T08:01:11.806Z,14.06
2023-04-29T08:03:41.593Z,14.15
2023-04-29T08:06:10.330Z,14.17
2023-04-29T08:08:38.299Z,14.20
2023-04-29T08:11:06.794Z,14.18
2023-04-29T08:13:34.835Z,14.19
2023-04-29T08:16:04.042Z,14.23
2023-04-29T08:18:31.852Z,14.20
2023-04-29T08:20:59.657Z,14.25
2023-04-29T08:23:27.458Z,14.27
2023-04-29T08:25:55.938Z,14.32
2023-04-29T08:28:24.101Z,14.29
2023-04-29T08:30:51.980Z,14.40
2023-04-29T08:33:21.245Z,14.45
2023-04-29T08:35:49.759Z,14.49
2023-04-29T08:38:17.536Z,14.52
2023-04-29T08:40:46.536Z,14.58
2023-04-29T08:43:16.070Z,14.63
2023-04-29T08:45:44.394Z,14.66
2023-04-29T08:48:12.622Z,14.70
2023-04-29T08:50:43.353Z,14.75
2023-04-29T08:53:12.638Z,14.77
2023-04-29T08:55:43.431Z,14.81
2023-04-29T08:58:12.469Z,14.85
2023-04-29T09:00:41.671Z,14.89
2023-04-29T09:03:21.089Z,14.88
2023-04-29T09:05:54.998Z,14.83
2023-04-29T09:08:24.050Z,14.83
2023-04-29T09:10:52.766Z,14.82
2023-04-29T09:13:27.954Z,14.85
2023-04-29T09:15:56.128Z,14.80
2023-04-29T09:18:43.399Z,14.85
2023-04-29T09:21:19.628Z,14.80
2023-04-29T09:23:50.398Z,14.83
2023-04-29T09:26:18.493Z,14.80
2023-04-29T09:28:47.719Z,14.72
2023-04-29T09:31:16.144Z,14.74
2023-04-29T09:33:54.516Z,14.77
2023-04-29T09:36:42.115Z,14.80
2023-04-29T09:39:12.665Z,14.83
2023-04-29T09:41:59.242Z,14.90
2023-04-29T09:44:31.291Z,14.95
2023-04-29T09:47:03.412Z,15.01
2023-04-29T09:49:35.612Z,15.09
2023-04-29T09:52:06.600Z,15.15
2023-04-29T09:54:36.811Z,15.18
2023-04-29T09:57:06.395Z,15.21
2023-04-29T09:59:36.181Z,15.30
2023-04-29T10:02:09.333Z,15.28
2023-04-29T10:04:41.834Z,15.36
2023-04-29T10:07:15.938Z,15.35
2023-04-29T10:09:46.504Z,15.40
2023-04-29T10:12:17.827Z,15.45
2023-04-29T10:14:51.933Z,15.46
2023-04-29T10:17:26.593Z,15.60
2023-04-29T10:19:59.707Z,15.68
2023-04-29T10:22:36.922Z,15.74
2023-04-29T10:25:08.479Z,15.82
2023-04-29T10:27:38.848Z,15.88
2023-04-29T10:30:11.356Z,15.95
2023-04-29T10:32:50.604Z,16.03
2023-04-29T10:35:20.458Z,16.01
2023-04-29T10:37:50.439Z,16.11
2023-04-29T10:40:23.182Z,16.11
2023-04-29T10:42:53.307Z,16.16
2023-04-29T10:45:26.848Z,16.15
2023-04-29T10:48:15.537Z,16.13
2023-04-29T10:51:03.396Z,16.12
2023-04-29T10:53:33.148Z,16.10
2023-04-29T10:56:08.975Z,16.13
2023-04-29T10:58:45.631Z,16.12
2023-04-29T11:01:15.343Z,16.10
2023-04-29T11:03:59.255Z,16.15
2023-04-29T11:06:39.721Z,16.17
2023-04-29T11:09:13.145Z,16.21
2023-04-29T11:11:49.760Z,16.12
2023-04-29T11:14:23.710Z,16.10
2023-04-29T11:16:54.233Z,16.14
2023-04-29T11:19:22.068Z,16.06
2023-04-29T11:21:50.436Z,16.11
2023-04-29T11:24:19.835Z,16.04
2023-04-29T11:26:48.911Z,16.08
2023-04-29T11:29:19.936Z,16.12
2023-04-29T11:31:47.796Z,16.17
2023-04-29T11:34:15.806Z,16.22
2023-04-29T11:36:45.818Z,16.27
2023-04-29T11:39:17.967Z,16.34
2023-04-29T11:41:47.809Z,16.38
2023-04-29T11:44:15.568Z,16.40
2023-04-29T11:46:43.413Z,16.43
2023-04-29T11:49:11.797Z,16.50
2023-04-29T11:51:39.628Z,16.51
2023-04-29T11:54:08.698Z,16.61
2023-04-29T11:56:39.540Z,16.70
2023-04-29T11:59:09.022Z,16.76
2023-04-29T12:01:37.249Z,16.84
2023-04-29T12:04:07.752Z,16.88
2023-04-29T12:06:35.660Z,16.79
2023-04-29T12:09:04.663Z,16.78
2023-04-29T12:11:32.677Z,16.78
2023-04-29T12:14:02.565Z,16.83
2023-04-29T12:16:32.788Z,16.92
2023-04-29T12:19:01.191Z,16.94
2023-04-29T12:21:29.779Z,17.02
2023-04-29T12:24:01.175Z,17.09
2023-04-29T12:26:30.214Z,17.16
2023-04-29T12:28:59.202Z,17.23
2023-04-29T12:31:37.143Z,17.32
2023-04-29T12:34:09.165Z,17.39
2023-04-29T12:36:38.225Z,17.49
2023-04-29T12:39:09.506Z,17.57
2023-04-29T12:41:39.257Z,17.60
2023-04-29T12:44:07.928Z,17.44
2023-04-29T12:46:38.188Z,17.33
2023-04-29T12:49:09.512Z,17.32
2023-04-29T12:51:37.735Z,17.26
2023-04-29T12:54:07.296Z,17.25
2023-04-29T12:56:35.639Z,17.30
2023-04-29T12:59:08.414Z,17.34
2023-04-29T13:01:38.288Z,17.28
2023-04-29T13:04:09.012Z,17.31
2023-04-29T13:06:40.063Z,17.26
2023-04-29T13:09:17.865Z,17.22
2023-04-29T13:11:47.259Z,17.26
2023-04-29T13:14:15.626Z,17.30
2023-04-29T13:16:45.211Z,17.33
2023-04-29T13:19:30.468Z,17.37
2023-04-29T13:22:01.595Z,17.38
2023-04-29T13:24:30.034Z,17.43
2023-04-29T13:26:58.182Z,17.49
2023-04-29T13:29:25.977Z,17.55
2023-04-29T13:31:55.662Z,17.60
2023-04-29T13:34:23.549Z,17.65
2023-04-29T13:36:51.333Z,17.72
2023-04-29T13:39:20.382Z,17.72
2023-04-29T13:41:48.329Z,17.70
2023-04-29T13:44:27.243Z,17.69
2023-04-29T13:47:02.773Z,17.71
2023-04-29T13:52:50.569Z,17.74
2023-04-29T13:55:25.895Z,17.73
2023-04-29T13:58:36.379Z,17.77
2023-04-29T14:05:33.363Z,17.87
2023-04-29T14:08:02.034Z,17.83
2023-04-29T14:10:29.856Z,17.89
2023-04-29T14:12:57.628Z,17.96
2023-04-29T14:15:25.977Z,17.78
2023-04-29T14:17:55.164Z,17.81
2023-04-29T14:20:24.497Z,17.86
2023-04-29T14:22:55.009Z,17.91
2023-04-29T14:25:22.756Z,17.86
2023-04-29T14:27:50.538Z,17.93
2023-04-29T14:30:18.817Z,17.92
2023-04-29T14:32:47.381Z,17.98
2023-04-29T14:35:15.281Z,18.00
2023-04-29T14:37:44.861Z,18.02
2023-04-29T14:40:12.625Z,18.07
2023-04-29T14:42:40.452Z,18.08
2023-04-29T14:45:09.349Z,18.06
2023-04-29T14:47:37.220Z,18.04
2023-04-29T14:50:05.630Z,18.05
2023-04-29T14:52:33.871Z,18.06
2023-04-29T14:55:03.044Z,18.03
2023-04-29T14:57:30.901Z,18.02
2023-04-29T14:59:58.720Z,18.03
2023-04-29T15:02:26.734Z,18.02
2023-04-29T15:04:54.830Z,18.04
2023-04-29T15:07:23.596Z,18.04
2023-04-29T15:09:51.581Z,18.08
2023-04-29T15:12:22.212Z,18.11
2023-04-29T15:14:50.890Z,18.13
2023-04-29T15:17:18.750Z,18.17
2023-04-29T15:19:46.880Z,18.20
2023-04-29T15:22:15.201Z,18.24
2023-04-29T15:24:42.994Z,18.27
2023-04-29T15:27:11.095Z,18.23
2023-04-29T15:29:42.136Z,18.34
2023-04-29T15:32:10.636Z,18.35
2023-04-29T15:34:38.602Z,18.36
2023-04-29T15:37:07.305Z,18.36
2023-04-29T15:39:35.097Z,18.30
2023-04-29T15:42:03.810Z,18.31
2023-04-29T15:44:32.188Z,18.31
2023-04-29T15:47:01.388Z,18.32
2023-04-29T15:49:29.226Z,18.31
2023-04-29T15:51:57.435Z,18.29
2023-04-29T15:54:25.207Z,18.32
2023-04-29T15:56:53.249Z,18.33
2023-04-29T15:59:21.523Z,18.34
2023-04-29T16:01:49.436Z,18.38
2023-04-29T16:04:18.758Z,18.39
2023-04-29T16:06:47.486Z,18.42
2023-04-29T16:09:15.451Z,18.45
2023-04-29T16:11:43.557Z,18.48
2023-04-29T16:14:11.976Z,18.44
2023-04-29T16:16:39.806Z,18.46
2023-04-29T16:19:07.782Z,18.46
2023-04-29T16:21:36.954Z,18.48
2023-04-29T16:24:05.641Z,18.48
2023-04-29T16:26:33.793Z,18.50
2023-04-29T16:29:01.778Z,18.52
2023-04-29T16:31:29.585Z,18.52
2023-04-29T16:33:58.090Z,18.54
2023-04-29T16:36:26.484Z,18.52
2023-04-29T16:38:55.718Z,18.54
2023-04-29T16:41:24.059Z,18.50
2023-04-29T16:43:52.065Z,18.54
2023-04-29T16:46:20.043Z,18.49
2023-04-29T16:48:50.837Z,18.49
2023-04-29T16:51:18.924Z,18.50
2023-04-29T16:53:46.746Z,18.52
2023-04-29T16:56:16.244Z,18.54
2023-04-29T16:58:44.463Z,18.48
2023-04-29T17:01:12.457Z,18.52
2023-04-29T17:03:40.544Z,18.52
2023-04-29T17:06:08.647Z,18.50
2023-04-29T17:08:36.683Z,18.52
2023-04-29T17:11:06.240Z,18.45
2023-04-29T17:13:35.454Z,18.47
2023-04-29T17:16:03.276Z,18.39
2023-04-29T17:18:31.136Z,18.34
2023-04-29T17:20:59.022Z,18.36
2023-04-29T17:23:26.794Z,18.26
2023-04-29T17:25:56.374Z,18.30
2023-04-29T17:28:24.594Z,18.30
2023-04-29T17:30:55.843Z,18.31
2023-04-29T17:33:32.518Z,18.27
2023-04-29T17:36:01.346Z,18.16
2023-04-29T17:38:29.396Z,18.22
2023-04-29T17:40:57.220Z,18.23
2023-04-29T17:43:25.174Z,18.24
2023-04-29T17:45:54.667Z,18.28
2023-04-29T17:48:22.774Z,18.34
2023-04-29T17:50:50.616Z,18.36
2023-04-29T17:53:18.644Z,18.37
2023-04-29T17:55:47.111Z,18.34
2023-04-29T17:58:14.940Z,18.36
2023-04-29T18:00:42.901Z,18.36
2023-04-29T18:03:12.385Z,18.34
2023-04-29T18:05:40.247Z,18.32
2023-04-29T18:08:08.125Z,18.33
2023-04-29T18:10:36.309Z,18.29
2023-04-29T18:13:04.457Z,18.29
2023-04-29T18:15:32.283Z,18.29
2023-04-29T18:18:00.168Z,18.26
2023-04-29T18:20:29.410Z,18.27
2023-04-29T18:22:57.209Z,18.27
2023-04-29T18:25:25.039Z,18.23
2023-04-29T18:27:59.805Z,18.23
2023-04-29T18:30:36.978Z,18.22
2023-04-29T18:33:04.942Z,18.22
2023-04-29T18:35:34.908Z,18.24
2023-04-29T18:38:02.715Z,18.23
2023-04-29T18:40:30.738Z,18.22
2023-04-29T18:42:58.555Z,18.22
2023-04-29T18:45:26.505Z,18.23
2023-04-29T18:47:54.378Z,18.23
2023-04-29T18:50:22.197Z,18.24
2023-04-29T18:52:52.194Z,18.25
2023-04-29T18:55:20.262Z,18.23
2023-04-29T18:57:48.363Z,18.24
2023-04-29T19:00:16.346Z,18.24
2023-04-29T19:02:44.177Z,18.20
2023-04-29T19:05:12.902Z,18.17
2023-04-29T19:07:41.481Z,18.14
2023-04-29T19:10:11.307Z,18.08
2023-04-29T19:12:39.058Z,17.98
2023-04-29T19:15:09.189Z,17.93
2023-04-29T19:17:37.065Z,17.85
2023-04-29T19:20:05.512Z,17.81
2023-04-29T19:22:33.508Z,17.70
2023-04-29T19:25:01.264Z,17.66
2023-04-29T19:27:30.517Z,17.59
2023-04-29T19:29:58.294Z,17.56
2023-04-29T19:32:27.622Z,17.52
2023-04-29T19:34:56.625Z,17.45
2023-04-29T19:37:24.599Z,17.40
2023-04-29T19:39:52.812Z,17.35
2023-04-29T19:42:20.740Z,17.33
2023-04-29T19:44:50.078Z,17.29
2023-04-29T19:47:17.849Z,17.23
2023-04-29T19:49:45.597Z,17.20
2023-04-29T19:52:13.824Z,17.16
2023-04-29T19:54:41.787Z,17.15
2023-04-29T19:57:09.587Z,17.12
2023-04-29T19:59:37.530Z,17.09
2023-04-29T20:02:06.979Z,17.07
2023-04-29T20:04:34.831Z,17.05
2023-04-29T20:07:02.806Z,17.03
2023-04-29T20:09:30.864Z,17.03
2023-04-29T20:11:58.644Z,17.01
2023-04-29T20:14:26.970Z,16.99
2023-04-29T20:16:55.119Z,16.96
2023-04-29T20:19:24.416Z,16.90
2023-04-29T20:21:52.204Z,16.90
2023-04-29T20:24:20.006Z,16.85
2023-04-29T20:26:47.785Z,16.82
2023-04-29T20:29:15.616Z,16.79
2023-04-29T20:31:43.832Z,16.76
2023-04-29T20:34:12.315Z,16.74
2023-04-29T20:36:41.750Z,16.73
2023-04-29T20:39:10.079Z,16.70
2023-04-29T20:41:37.946Z,16.66
2023-04-29T20:44:05.821Z,16.64
2023-04-29T20:46:33.710Z,16.61
2023-04-29T20:49:02.440Z,16.58
2023-04-29T20:51:32.679Z,16.56
2023-04-29T20:54:01.828Z,16.55
2023-04-29T20:56:29.615Z,16.51
2023-04-29T20:58:59.013Z,16.48
2023-04-29T21:01:26.895Z,16.45
2023-04-29T21:03:54.756Z,16.43
2023-04-29T21:06:22.809Z,16.40
2023-04-29T21:08:50.702Z,16.38
2023-04-29T21:11:20.023Z,16.38
2023-04-29T21:13:50.400Z,16.34
2023-04-29T21:16:18.779Z,16.33
2023-04-29T21:18:46.984Z,16.31
2023-04-29T21:21:15.042Z,16.28
2023-04-29T21:23:44.466Z,16.27
2023-04-29T21:26:14.896Z,16.22
2023-04-29T21:28:44.526Z,16.22
2023-04-29T21:31:16.211Z,16.25
2023-04-29T21:33:44.813Z,16.22
2023-04-29T21:36:13.145Z,16.19
2023-04-29T21:38:43.162Z,16.14
2023-04-29T21:41:22.633Z,16.13
2023-04-29T21:43:52.381Z,16.08
2023-04-29T21:46:20.717Z,16.11
2023-04-29T21:48:48.912Z,16.07
2023-04-29T21:51:19.172Z,16.02
2023-04-29T21:53:47.039Z,15.97
2023-04-29T21:56:15.133Z,15.93
2023-04-29T21:58:43.879Z,15.90
2023-04-29T22:01:27.161Z,15.87
2023-04-29T22:03:56.158Z,15.85
2023-04-29T22:06:24.960Z,15.83
2023-04-29T22:08:52.846Z,15.79
2023-04-29T22:11:21.748Z,15.76
2023-04-29T22:13:49.836Z,15.75
2023-04-29T22:16:19.771Z,15.72
2023-04-29T22:18:48.476Z,15.69
2023-04-29T22:21:16.646Z,15.66
2023-04-29T22:23:44.846Z,15.63
2023-04-29T22:26:12.620Z,15.58
2023-04-29T22:28:40.726Z,15.54
2023-04-29T22:31:08.528Z,15.51
2023-04-29T22:33:38.030Z,15.47
2023-04-29T22:36:06.052Z,15.43
2023-04-29T22:38:34.902Z,15.40
2023-04-29T22:41:03.008Z,15.38
2023-04-29T22:43:30.769Z,15.35
2023-04-29T22:45:58.591Z,15.32
2023-04-29T22:48:27.725Z,15.29
2023-04-29T22:51:00.138Z,15.22
2023-04-29T22:53:28.351Z,15.23
2023-04-29T22:55:58.988Z,15.20
2023-04-29T22:58:27.486Z,15.16
2023-04-29T23:00:58.615Z,15.14
2023-04-29T23:03:27.484Z,15.11
2023-04-29T23:06:00.392Z,15.12
2023-04-29T23:08:28.343Z,15.07
2023-04-29T23:10:56.150Z,15.02
2023-04-29T23:13:24.034Z,14.99
2023-04-29T23:15:52.448Z,14.95
2023-04-29T23:18:20.269Z,14.92
2023-04-29T23:20:48.677Z,14.90
2023-04-29T23:23:18.569Z,14.88
2023-04-29T23:25:46.740Z,14.85
2023-04-29T23:28:14.602Z,14.82
2023-04-29T23:30:43.367Z,14.79
2023-04-29T23:33:11.151Z,14.77
2023-04-29T23:35:38.899Z,14.75
2023-04-29T23:38:06.736Z,14.72
2023-04-29T23:40:36.208Z,14.70
2023-04-29T23:43:04.021Z,14.67
2023-04-29T23:45:32.151Z,14.65
2023-04-29T23:47:59.967Z,14.61
2023-04-29T23:50:27.824Z,14.58
2023-04-29T23:52:55.635Z,14.57
2023-04-29T23:55:23.429Z,14.53
2023-04-29T23:57:52.578Z,14.51
